19.0°F
Current conditions from King Hill
Updated every 5 minutes
 
  Friday December 19, 2014

Station Historical Data
Daily Summary for July 5, 2012 Units:  Both    English   Metric
« Previous Day
Next Day »
Daily Weekly Monthly Yearly Custom
  High: Low: Average:
Temperature: 76.1 °F /  24.5 °C 58.1 °F /  14.5 °C 66.7 °F /  19.3 °C
Dew Point: 65.1 °F /  18.4 °C 56.3 °F /  13.5 °C 61.6 °F /  16.4 °C
Humidity: 96% 64% 84%
Wind Speed: 5.0mph /  8km/h - 1.9mph /  3.1km/h
Wind Gust: 10.0mph /  16.1km/h - -
Wind- - SSE
Pressure: 29.87 in /  1011.4 hPa 29.71 in /  1006 hPa -
Precipitation: 0.01 in /  0.3 mm    
Historical Graphs
 
 
Tabular Data for July 5, 2012
Time Temperature Dew Point Pressure Wind Wind Speed Wind Gust Humidity Daily Rainfall
00:04 63.2 °F /  17.3 °C 62.0 °F /  16.7 °C 29.71in /  1006hPa Calm     96% 0.00in /  0mm
00:09 63.6 °F /  17.6 °C 62.4 °F /  16.9 °C 29.71in /  1006hPa Calm   1.0mph /  1.6km/h 96% 0.00in /  0mm
00:14 64.0 °F /  17.8 °C 62.8 °F /  17.1 °C 29.71in /  1006hPa NW 2.0mph /  3.2km/h 8.0mph /  12.9km/h 96% 0.00in /  0mm
00:19 64.5 °F /  18.1 °C 63.3 °F /  17.4 °C 29.71in /  1006hPa Calm   8.0mph /  12.9km/h 96% 0.00in /  0mm
00:24 64.7 °F /  18.2 °C 63.5 °F /  17.5 °C 29.71in /  1006hPa Calm   6.0mph /  9.7km/h 96% 0.00in /  0mm
00:29 64.8 °F /  18.2 °C 63.6 °F /  17.6 °C 29.71in /  1006hPa Calm     96% 0.00in /  0mm
00:34 64.9 °F /  18.3 °C 63.7 °F /  17.6 °C 29.71in /  1006hPa Calm     96% 0.00in /  0mm
00:39 64.9 °F /  18.3 °C 63.7 °F /  17.6 °C 29.71in /  1006hPa ENE 1.0mph /  1.6km/h 3.0mph /  4.8km/h 96% 0.00in /  0mm
00:44 64.9 °F /  18.3 °C 63.7 °F /  17.6 °C 29.72in /  1006.3hPa Calm   3.0mph /  4.8km/h 96% 0.00in /  0mm
00:49 64.9 °F /  18.3 °C 63.7 °F /  17.6 °C 29.72in /  1006.3hPa Calm   2.0mph /  3.2km/h 96% 0.00in /  0mm
00:54 65.1 °F /  18.4 °C 63.9 °F /  17.7 °C 29.72in /  1006.3hPa Calm     96% 0.00in /  0mm
00:59 65.3 °F /  18.5 °C 64.1 °F /  17.8 °C 29.72in /  1006.3hPa Calm     96% 0.00in /  0mm
01:04 65.3 °F /  18.5 °C 64.1 °F /  17.8 °C 29.72in /  1006.3hPa Calm     96% 0.00in /  0mm
01:09 65.4 °F /  18.6 °C 64.2 °F /  17.9 °C 29.72in /  1006.3hPa Calm     96% 0.00in /  0mm
01:14 65.4 °F /  18.6 °C 64.2 °F /  17.9 °C 29.72in /  1006.3hPa Calm     96% 0.00in /  0mm
01:19 65.3 °F /  18.5 °C 64.1 °F /  17.8 °C 29.72in /  1006.3hPa Calm   3.0mph /  4.8km/h 96% 0.00in /  0mm
01:24 65.2 °F /  18.4 °C 64.0 °F /  17.8 °C 29.72in /  1006.3hPa Calm   3.0mph /  4.8km/h 96% 0.00in /  0mm
01:29 65.1 °F /  18.4 °C 63.9 °F /  17.7 °C 29.72in /  1006.3hPa Calm   1.0mph /  1.6km/h 96% 0.00in /  0mm
01:34 65.0 °F /  18.3 °C 63.8 °F /  17.7 °C 29.72in /  1006.3hPa Calm     96% 0.00in /  0mm
01:39 65.0 °F /  18.3 °C 63.8 °F /  17.7 °C 29.72in /  1006.3hPa Calm     96% 0.00in /  0mm
01:44 64.9 °F /  18.3 °C 63.7 °F /  17.6 °C 29.72in /  1006.3hPa Calm     96% 0.00in /  0mm
01:49 64.8 °F /  18.2 °C 63.6 °F /  17.6 °C 29.72in /  1006.3hPa Calm     96% 0.00in /  0mm
01:54 64.5 °F /  18.1 °C 63.3 °F /  17.4 °C 29.72in /  1006.3hPa Calm     96% 0.00in /  0mm
01:59 64.3 °F /  17.9 °C 63.1 °F /  17.3 °C 29.72in /  1006.3hPa NE 1.0mph /  1.6km/h 3.0mph /  4.8km/h 96% 0.00in /  0mm
02:04 64.1 °F /  17.8 °C 62.9 °F /  17.2 °C 29.72in /  1006.3hPa Calm   3.0mph /  4.8km/h 96% 0.00in /  0mm
02:09 64.0 °F /  17.8 °C 62.8 °F /  17.1 °C 29.72in /  1006.3hPa Calm     96% 0.00in /  0mm
02:14 64.0 °F /  17.8 °C 62.8 °F /  17.1 °C 29.72in /  1006.3hPa Calm   1.0mph /  1.6km/h 96% 0.00in /  0mm
02:19 64.0 °F /  17.8 °C 62.8 °F /  17.1 °C 29.72in /  1006.3hPa Calm   1.0mph /  1.6km/h 96% 0.00in /  0mm
02:24 63.9 °F /  17.7 °C 62.7 °F /  17.1 °C 29.72in /  1006.3hPa Calm   3.0mph /  4.8km/h 96% 0.00in /  0mm
02:29 63.8 °F /  17.7 °C 62.6 °F /  17 °C 29.72in /  1006.3hPa Calm   3.0mph /  4.8km/h 96% 0.00in /  0mm
02:34 63.6 °F /  17.6 °C 62.4 °F /  16.9 °C 29.72in /  1006.3hPa Calm   3.0mph /  4.8km/h 96% 0.00in /  0mm
02:39 63.5 °F /  17.5 °C 62.3 °F /  16.8 °C 29.72in /  1006.3hPa Calm     96% 0.00in /  0mm
02:44 63.5 °F /  17.5 °C 62.3 °F /  16.8 °C 29.72in /  1006.3hPa Calm     96% 0.00in /  0mm
02:49 63.6 °F /  17.6 °C 62.4 °F /  16.9 °C 29.72in /  1006.3hPa Calm     96% 0.00in /  0mm
02:54 63.7 °F /  17.6 °C 62.5 °F /  16.9 °C 29.71in /  1006hPa Calm     96% 0.00in /  0mm
02:59 63.8 °F /  17.7 °C 62.6 °F /  17 °C 29.71in /  1006hPa Calm     96% 0.00in /  0mm
03:04 63.8 °F /  17.7 °C 62.6 °F /  17 °C 29.72in /  1006.3hPa Calm   2.0mph /  3.2km/h 96% 0.00in /  0mm
03:09 63.7 °F /  17.6 °C 62.5 °F /  16.9 °C 29.72in /  1006.3hPa Calm   2.0mph /  3.2km/h 96% 0.00in /  0mm
03:14 63.6 °F /  17.6 °C 62.4 °F /  16.9 °C 29.72in /  1006.3hPa Calm   4.0mph /  6.4km/h 96% 0.00in /  0mm
03:19 63.4 °F /  17.4 °C 62.2 °F /  16.8 °C 29.72in /  1006.3hPa NNE 1.0mph /  1.6km/h 9.0mph /  14.5km/h 96% 0.00in /  0mm
03:24 63.3 °F /  17.4 °C 62.1 °F /  16.7 °C 29.72in /  1006.3hPa Calm   9.0mph /  14.5km/h 96% 0.00in /  0mm
03:29 63.2 °F /  17.3 °C 62.0 °F /  16.7 °C 29.72in /  1006.3hPa Calm   6.0mph /  9.7km/h 96% 0.00in /  0mm
03:34 63.1 °F /  17.3 °C 61.9 °F /  16.6 °C 29.72in /  1006.3hPa Calm   1.0mph /  1.6km/h 96% 0.00in /  0mm
03:39 63.0 °F /  17.2 °C 61.8 °F /  16.6 °C 29.72in /  1006.3hPa Calm   5.0mph /  8km/h 96% 0.00in /  0mm
03:44 62.9 °F /  17.2 °C 61.7 °F /  16.5 °C 29.72in /  1006.3hPa Calm   5.0mph /  8km/h 96% 0.00in /  0mm
03:49 62.7 °F /  17.1 °C 61.5 °F /  16.4 °C 29.72in /  1006.3hPa Calm   3.0mph /  4.8km/h 96% 0.00in /  0mm
03:54 62.5 °F /  16.9 °C 61.3 °F /  16.3 °C 29.72in /  1006.3hPa NNE 3.0mph /  4.8km/h 8.0mph /  12.9km/h 96% 0.00in /  0mm
03:59 62.1 °F /  16.7 °C 60.7 °F /  15.9 °C 29.72in /  1006.3hPa NNE 1.0mph /  1.6km/h 8.0mph /  12.9km/h 95% 0.00in /  0mm
04:04 61.9 °F /  16.6 °C 60.5 °F /  15.8 °C 29.72in /  1006.3hPa Calm   8.0mph /  12.9km/h 95% 0.00in /  0mm
04:09 61.7 °F /  16.5 °C 60.5 °F /  15.8 °C 29.73in /  1006.7hPa Calm   6.0mph /  9.7km/h 96% 0.00in /  0mm
04:14 61.6 °F /  16.4 °C 60.2 °F /  15.7 °C 29.73in /  1006.7hPa Calm   1.0mph /  1.6km/h 95% 0.00in /  0mm
04:19 61.6 °F /  16.4 °C 60.4 °F /  15.8 °C 29.73in /  1006.7hPa NE 1.0mph /  1.6km/h 6.0mph /  9.7km/h 96% 0.00in /  0mm
04:24 61.6 °F /  16.4 °C 60.2 °F /  15.7 °C 29.73in /  1006.7hPa Calm   6.0mph /  9.7km/h 95% 0.00in /  0mm
04:29 61.6 °F /  16.4 °C 60.2 °F /  15.7 °C 29.73in /  1006.7hPa Calm   5.0mph /  8km/h 95% 0.00in /  0mm
04:34 61.6 °F /  16.4 °C 60.2 °F /  15.7 °C 29.73in /  1006.7hPa Calm   5.0mph /  8km/h 95% 0.00in /  0mm
04:39 61.5 °F /  16.4 °C 60.1 °F /  15.6 °C 29.73in /  1006.7hPa Calm   3.0mph /  4.8km/h 95% 0.00in /  0mm
04:44 61.3 °F /  16.3 °C 59.9 °F /  15.5 °C 29.73in /  1006.7hPa Calm   3.0mph /  4.8km/h 95% 0.00in /  0mm
04:49 61.2 °F /  16.2 °C 59.8 °F /  15.4 °C 29.74in /  1007hPa Calm   4.0mph /  6.4km/h 95% 0.00in /  0mm
04:54 61.1 °F /  16.2 °C 59.7 °F /  15.4 °C 29.74in /  1007hPa Calm   4.0mph /  6.4km/h 95% 0.00in /  0mm
04:59 61.1 °F /  16.2 °C 59.7 °F /  15.4 °C 29.74in /  1007hPa Calm   3.0mph /  4.8km/h 95% 0.00in /  0mm
05:04 61.1 °F /  16.2 °C 59.7 °F /  15.4 °C 29.74in /  1007hPa Calm     95% 0.00in /  0mm
05:09 61.0 °F /  16.1 °C 59.6 °F /  15.3 °C 29.74in /  1007hPa Calm   1.0mph /  1.6km/h 95% 0.00in /  0mm
05:14 61.0 °F /  16.1 °C 59.6 °F /  15.3 °C 29.74in /  1007hPa Calm   1.0mph /  1.6km/h 95% 0.00in /  0mm
05:19 61.1 °F /  16.2 °C 59.7 °F /  15.4 °C 29.74in /  1007hPa Calm   1.0mph /  1.6km/h 95% 0.00in /  0mm
05:24 61.1 °F /  16.2 °C 59.7 °F /  15.4 °C 29.75in /  1007.3hPa Calm   3.0mph /  4.8km/h 95% 0.00in /  0mm
05:29 61.1 °F /  16.2 °C 59.7 °F /  15.4 °C 29.75in /  1007.3hPa Calm   3.0mph /  4.8km/h 95% 0.00in /  0mm
05:34 61.2 °F /  16.2 °C 59.8 °F /  15.4 °C 29.75in /  1007.3hPa Calm   3.0mph /  4.8km/h 95% 0.00in /  0mm
05:39 61.1 °F /  16.2 °C 59.4 °F /  15.2 °C 29.75in /  1007.3hPa Calm   3.0mph /  4.8km/h 94% 0.00in /  0mm
05:44 61.1 °F /  16.2 °C 59.4 °F /  15.2 °C 29.76in /  1007.7hPa Calm   3.0mph /  4.8km/h 94% 0.00in /  0mm
05:49 61.2 °F /  16.2 °C 59.5 °F /  15.3 °C 29.76in /  1007.7hPa Calm   1.0mph /  1.6km/h 94% 0.00in /  0mm
05:54 61.1 °F /  16.2 °C 59.4 °F /  15.2 °C 29.76in /  1007.7hPa Calm   2.0mph /  3.2km/h 94% 0.00in /  0mm
05:59 61.1 °F /  16.2 °C 59.4 °F /  15.2 °C 29.76in /  1007.7hPa Calm   2.0mph /  3.2km/h 94% 0.00in /  0mm
06:04 61.1 °F /  16.2 °C 59.4 °F /  15.2 °C 29.76in /  1007.7hPa Calm   1.0mph /  1.6km/h 94% 0.00in /  0mm
06:09 61.2 °F /  16.2 °C 59.5 °F /  15.3 °C 29.76in /  1007.7hPa NW 1.0mph /  1.6km/h 5.0mph /  8km/h 94% 0.00in /  0mm
06:14 61.2 °F /  16.2 °C 59.5 °F /  15.3 °C 29.77in /  1008hPa Calm   5.0mph /  8km/h 94% 0.00in /  0mm
06:19 61.3 °F /  16.3 °C 59.6 °F /  15.3 °C 29.77in /  1008hPa Calm   3.0mph /  4.8km/h 94% 0.00in /  0mm
06:24 61.3 °F /  16.3 °C 59.6 °F /  15.3 °C 29.77in /  1008hPa Calm   4.0mph /  6.4km/h 94% 0.00in /  0mm
06:29 61.4 °F /  16.3 °C 59.7 °F /  15.4 °C 29.77in /  1008hPa Calm   6.0mph /  9.7km/h 94% 0.00in /  0mm
06:34 61.4 °F /  16.3 °C 59.7 °F /  15.4 °C 29.77in /  1008hPa Calm   6.0mph /  9.7km/h 94% 0.00in /  0mm
06:39 61.5 °F /  16.4 °C 59.8 °F /  15.4 °C 29.77in /  1008hPa Calm     94% 0.00in /  0mm
06:44 61.6 °F /  16.4 °C 59.6 °F /  15.3 °C 29.78in /  1008.4hPa Calm     93% 0.00in /  0mm
06:49 61.7 °F /  16.5 °C 59.7 °F /  15.4 °C 29.78in /  1008.4hPa Calm     93% 0.00in /  0mm
06:54 61.7 °F /  16.5 °C 59.7 °F /  15.4 °C 29.78in /  1008.4hPa Calm   2.0mph /  3.2km/h 93% 0.00in /  0mm
06:59 61.8 °F /  16.6 °C 59.8 °F /  15.4 °C 29.78in /  1008.4hPa Calm   2.0mph /  3.2km/h 93% 0.00in /  0mm
07:04 62.0 °F /  16.7 °C 60.0 °F /  15.6 °C 29.78in /  1008.4hPa Calm     93% 0.00in /  0mm
07:09 62.0 °F /  16.7 °C 59.7 °F /  15.4 °C 29.78in /  1008.4hPa Calm   6.0mph /  9.7km/h 92% 0.00in /  0mm
07:14 62.1 °F /  16.7 °C 59.7 °F /  15.4 °C 29.78in /  1008.4hPa Calm   6.0mph /  9.7km/h 92% 0.00in /  0mm
07:19 62.2 °F /  16.8 °C 59.8 °F /  15.4 °C 29.78in /  1008.4hPa Calm   3.0mph /  4.8km/h 92% 0.00in /  0mm
07:24 62.2 °F /  16.8 °C 59.8 °F /  15.4 °C 29.79in /  1008.7hPa Calm   5.0mph /  8km/h 92% 0.00in /  0mm
07:29 62.2 °F /  16.8 °C 59.8 °F /  15.4 °C 29.79in /  1008.7hPa Calm   5.0mph /  8km/h 92% 0.00in /  0mm
07:34 62.3 °F /  16.8 °C 59.9 °F /  15.5 °C 29.79in /  1008.7hPa Calm     92% 0.00in /  0mm
07:39 62.4 °F /  16.9 °C 59.7 °F /  15.4 °C 29.79in /  1008.7hPa Calm     91% 0.00in /  0mm
07:44 62.7 °F /  17.1 °C 60.3 °F /  15.7 °C 29.79in /  1008.7hPa Calm     92% 0.00in /  0mm
07:49 62.9 °F /  17.2 °C 60.5 °F /  15.8 °C 29.79in /  1008.7hPa Calm     92% 0.00in /  0mm
07:54 62.9 °F /  17.2 °C 60.2 °F /  15.7 °C 29.80in /  1009hPa Calm   7.0mph /  11.3km/h 91% 0.00in /  0mm
07:59 63.0 °F /  17.2 °C 60.3 °F /  15.7 °C 29.79in /  1008.7hPa Calm   7.0mph /  11.3km/h 91% 0.00in /  0mm
08:04 63.2 °F /  17.3 °C 60.5 °F /  15.8 °C 29.80in /  1009hPa Calm   3.0mph /  4.8km/h 91% 0.00in /  0mm
08:09 63.5 °F /  17.5 °C 60.8 °F /  16 °C 29.80in /  1009hPa Calm     91% 0.00in /  0mm
08:14 63.6 °F /  17.6 °C 60.9 °F /  16.1 °C 29.80in /  1009hPa Calm   4.0mph /  6.4km/h 91% 0.00in /  0mm
08:19 63.6 °F /  17.6 °C 60.6 °F /  15.9 °C 29.81in /  1009.4hPa Calm   6.0mph /  9.7km/h 90% 0.00in /  0mm
08:24 63.6 °F /  17.6 °C 60.3 °F /  15.7 °C 29.81in /  1009.4hPa NW 2.0mph /  3.2km/h 10.0mph /  16.1km/h 89% 0.00in /  0mm
08:29 63.7 °F /  17.6 °C 60.4 °F /  15.8 °C 29.81in /  1009.4hPa WNW 2.0mph /  3.2km/h 10.0mph /  16.1km/h 89% 0.00in /  0mm
08:34 64.0 °F /  17.8 °C 61.0 °F /  16.1 °C 29.81in /  1009.4hPa Calm   5.0mph /  8km/h 90% 0.00in /  0mm
08:39 64.1 °F /  17.8 °C 60.5 °F /  15.8 °C 29.81in /  1009.4hPa WNW 1.0mph /  1.6km/h 8.0mph /  12.9km/h 88% 0.00in /  0mm
08:44 64.4 °F /  18 °C 61.1 °F /  16.2 °C 29.81in /  1009.4hPa North 1.0mph /  1.6km/h 8.0mph /  12.9km/h 89% 0.00in /  0mm
08:49 64.7 °F /  18.2 °C 61.1 °F /  16.2 °C 29.81in /  1009.4hPa Calm   7.0mph /  11.3km/h 88% 0.00in /  0mm
08:54 64.6 °F /  18.1 °C 60.3 °F /  15.7 °C 29.82in /  1009.7hPa Calm   4.0mph /  6.4km/h 86% 0.00in /  0mm
08:59 64.7 °F /  18.2 °C 60.4 °F /  15.8 °C 29.82in /  1009.7hPa North 1.0mph /  1.6km/h 8.0mph /  12.9km/h 86% 0.00in /  0mm
09:04 64.8 °F /  18.2 °C 60.5 °F /  15.8 °C 29.81in /  1009.4hPa NW 2.0mph /  3.2km/h 8.0mph /  12.9km/h 86% 0.00in /  0mm
09:09 65.0 °F /  18.3 °C 60.7 °F /  15.9 °C 29.81in /  1009.4hPa NW 2.0mph /  3.2km/h 9.0mph /  14.5km/h 86% 0.00in /  0mm
09:14 65.6 °F /  18.7 °C 61.6 °F /  16.4 °C 29.81in /  1009.4hPa NW 1.0mph /  1.6km/h 9.0mph /  14.5km/h 87% 0.00in /  0mm
09:19 66.1 °F /  18.9 °C 61.8 °F /  16.6 °C 29.81in /  1009.4hPa NNE 1.0mph /  1.6km/h 4.0mph /  6.4km/h 86% 0.00in /  0mm
09:24 66.3 °F /  19.1 °C 61.0 °F /  16.1 °C 29.81in /  1009.4hPa NNE 1.0mph /  1.6km/h 5.0mph /  8km/h 83% 0.00in /  0mm
09:29 66.3 °F /  19.1 °C 61.0 °F /  16.1 °C 29.81in /  1009.4hPa Calm   6.0mph /  9.7km/h 83% 0.00in /  0mm
09:34 66.2 °F /  19 °C 60.5 °F /  15.8 °C 29.81in /  1009.4hPa NE 1.0mph /  1.6km/h 6.0mph /  9.7km/h 82% 0.00in /  0mm
09:39 66.2 °F /  19 °C 61.2 °F /  16.2 °C 29.81in /  1009.4hPa NW 1.0mph /  1.6km/h 6.0mph /  9.7km/h 84% 0.00in /  0mm
09:44 66.2 °F /  19 °C 61.2 °F /  16.2 °C 29.82in /  1009.7hPa NNE 1.0mph /  1.6km/h 6.0mph /  9.7km/h 84% 0.00in /  0mm
09:49 66.2 °F /  19 °C 60.9 °F /  16.1 °C 29.82in /  1009.7hPa Calm   5.0mph /  8km/h 83% 0.00in /  0mm
09:54 67.1 °F /  19.5 °C 62.4 °F /  16.9 °C 29.82in /  1009.7hPa Calm   5.0mph /  8km/h 85% 0.00in /  0mm
09:59 67.5 °F /  19.7 °C 61.1 °F /  16.2 °C 29.82in /  1009.7hPa Calm   5.0mph /  8km/h 80% 0.00in /  0mm
10:04 67.7 °F /  19.8 °C 61.7 °F /  16.5 °C 29.82in /  1009.7hPa NW 1.0mph /  1.6km/h 6.0mph /  9.7km/h 81% 0.00in /  0mm
10:09 67.7 °F /  19.8 °C 61.3 °F /  16.3 °C 29.82in /  1009.7hPa Calm   8.0mph /  12.9km/h 80% 0.00in /  0mm
10:14 68.1 °F /  20.1 °C 61.3 °F /  16.3 °C 29.82in /  1009.7hPa Calm   8.0mph /  12.9km/h 79% 0.00in /  0mm
10:19 68.5 °F /  20.3 °C 62.1 °F /  16.7 °C 29.82in /  1009.7hPa Calm   7.0mph /  11.3km/h 80% 0.00in /  0mm
10:24 68.8 °F /  20.4 °C 62.4 °F /  16.9 °C 29.82in /  1009.7hPa Calm   7.0mph /  11.3km/h 80% 0.00in /  0mm
10:29 69.5 °F /  20.8 °C 62.3 °F /  16.8 °C 29.82in /  1009.7hPa NNE 1.0mph /  1.6km/h 6.0mph /  9.7km/h 78% 0.00in /  0mm
10:34 69.7 °F /  20.9 °C 62.9 °F /  17.2 °C 29.82in /  1009.7hPa Calm   6.0mph /  9.7km/h 79% 0.00in /  0mm
10:39 70.0 °F /  21.1 °C 62.8 °F /  17.1 °C 29.82in /  1009.7hPa Calm   7.0mph /  11.3km/h 78% 0.00in /  0mm
10:44 70.4 °F /  21.3 °C 63.6 °F /  17.6 °C 29.82in /  1009.7hPa Calm   7.0mph /  11.3km/h 79% 0.00in /  0mm
10:49 70.4 °F /  21.3 °C 62.9 °F /  17.2 °C 29.82in /  1009.7hPa Calm   4.0mph /  6.4km/h 77% 0.00in /  0mm
10:54 70.3 °F /  21.3 °C 63.1 °F /  17.3 °C 29.82in /  1009.7hPa Calm   4.0mph /  6.4km/h 78% 0.00in /  0mm
10:59 70.5 °F /  21.4 °C 62.6 °F /  17 °C 29.82in /  1009.7hPa NE 3.0mph /  4.8km/h 7.0mph /  11.3km/h 76% 0.00in /  0mm
11:04 71.1 °F /  21.7 °C 63.5 °F /  17.5 °C 29.82in /  1009.7hPa Calm   7.0mph /  11.3km/h 77% 0.00in /  0mm
11:09 71.3 °F /  21.8 °C 62.2 °F /  16.8 °C 29.82in /  1009.7hPa NNE 1.0mph /  1.6km/h 4.0mph /  6.4km/h 73% 0.00in /  0mm
11:14 71.3 °F /  21.8 °C 62.6 °F /  17 °C 29.82in /  1009.7hPa Calm   4.0mph /  6.4km/h 74% 0.00in /  0mm
11:19 71.1 °F /  21.7 °C 61.6 °F /  16.4 °C 29.82in /  1009.7hPa NNE 1.0mph /  1.6km/h 4.0mph /  6.4km/h 72% 0.00in /  0mm
11:24 71.1 °F /  21.7 °C 62.4 °F /  16.9 °C 29.83in /  1010hPa North 1.0mph /  1.6km/h 5.0mph /  8km/h 74% 0.00in /  0mm
11:29 70.3 °F /  21.3 °C 61.2 °F /  16.2 °C 29.83in /  1010hPa Calm   6.0mph /  9.7km/h 73% 0.00in /  0mm
11:34 69.5 °F /  20.8 °C 61.2 °F /  16.2 °C 29.83in /  1010hPa Calm   6.0mph /  9.7km/h 75% 0.00in /  0mm
11:39 69.0 °F /  20.6 °C 61.9 °F /  16.6 °C 29.83in /  1010hPa Calm   5.0mph /  8km/h 78% 0.00in /  0mm
11:44 69.2 °F /  20.7 °C 62.8 °F /  17.1 °C 29.83in /  1010hPa NE 1.0mph /  1.6km/h 5.0mph /  8km/h 80% 0.00in /  0mm
11:49 70.0 °F /  21.1 °C 62.5 °F /  16.9 °C 29.82in /  1009.7hPa Calm   4.0mph /  6.4km/h 77% 0.00in /  0mm
11:54 71.0 °F /  21.7 °C 63.1 °F /  17.3 °C 29.83in /  1010hPa North 1.0mph /  1.6km/h 6.0mph /  9.7km/h 76% 0.00in /  0mm
11:59 71.4 °F /  21.9 °C 62.7 °F /  17.1 °C 29.82in /  1009.7hPa Calm   6.0mph /  9.7km/h 74% 0.01in /  0.3mm
12:04 71.3 °F /  21.8 °C 63.4 °F /  17.4 °C 29.82in /  1009.7hPa Calm   1.0mph /  1.6km/h 76% 0.01in /  0.3mm
12:09 71.5 °F /  21.9 °C 62.8 °F /  17.1 °C 29.82in /  1009.7hPa Calm   4.0mph /  6.4km/h 74% 0.01in /  0.3mm
12:14 71.3 °F /  21.8 °C 61.8 °F /  16.6 °C 29.82in /  1009.7hPa NW 1.0mph /  1.6km/h 6.0mph /  9.7km/h 72% 0.01in /  0.3mm
12:19 70.7 °F /  21.5 °C 61.2 °F /  16.2 °C 29.82in /  1009.7hPa Calm   6.0mph /  9.7km/h 72% 0.01in /  0.3mm
12:24 70.4 °F /  21.3 °C 61.3 °F /  16.3 °C 29.82in /  1009.7hPa NE 1.0mph /  1.6km/h 7.0mph /  11.3km/h 73% 0.01in /  0.3mm
12:29 70.5 °F /  21.4 °C 62.6 °F /  17 °C 29.82in /  1009.7hPa Calm   7.0mph /  11.3km/h 76% 0.01in /  0.3mm
12:34 70.7 °F /  21.5 °C 62.8 °F /  17.1 °C 29.82in /  1009.7hPa Calm   2.0mph /  3.2km/h 76% 0.01in /  0.3mm
12:39 70.8 °F /  21.6 °C 62.5 °F /  16.9 °C 29.82in /  1009.7hPa Calm   1.0mph /  1.6km/h 75% 0.01in /  0.3mm
12:44 71.0 °F /  21.7 °C 63.8 °F /  17.7 °C 29.82in /  1009.7hPa Calm   5.0mph /  8km/h 78% 0.01in /  0.3mm
12:49 71.2 °F /  21.8 °C 62.1 °F /  16.7 °C 29.82in /  1009.7hPa NNE 2.0mph /  3.2km/h 5.0mph /  8km/h 73% 0.01in /  0.3mm
12:54 71.7 °F /  22.1 °C 63.4 °F /  17.4 °C 29.82in /  1009.7hPa Calm   5.0mph /  8km/h 75% 0.01in /  0.3mm
12:59 72.0 °F /  22.2 °C 62.9 °F /  17.2 °C 29.82in /  1009.7hPa NW 4.0mph /  6.4km/h 8.0mph /  12.9km/h 73% 0.01in /  0.3mm
13:04 71.6 °F /  22 °C 62.5 °F /  16.9 °C 29.82in /  1009.7hPa NW 4.0mph /  6.4km/h 8.0mph /  12.9km/h 73% 0.01in /  0.3mm
13:09 71.6 °F /  22 °C 62.5 °F /  16.9 °C 29.82in /  1009.7hPa Calm   6.0mph /  9.7km/h 73% 0.01in /  0.3mm
13:14 72.2 °F /  22.3 °C 63.1 °F /  17.3 °C 29.82in /  1009.7hPa NW 4.0mph /  6.4km/h 7.0mph /  11.3km/h 73% 0.01in /  0.3mm
13:19 72.5 °F /  22.5 °C 62.2 °F /  16.8 °C 29.82in /  1009.7hPa NW 4.0mph /  6.4km/h 7.0mph /  11.3km/h 70% 0.01in /  0.3mm
13:24 72.4 °F /  22.4 °C 63.3 °F /  17.4 °C 29.82in /  1009.7hPa Calm   7.0mph /  11.3km/h 73% 0.01in /  0.3mm
13:29 72.6 °F /  22.6 °C 63.8 °F /  17.7 °C 29.81in /  1009.4hPa NW 1.0mph /  1.6km/h 6.0mph /  9.7km/h 74% 0.01in /  0.3mm
13:34 73.3 °F /  22.9 °C 63.7 °F /  17.6 °C 29.81in /  1009.4hPa Calm   5.0mph /  8km/h 72% 0.01in /  0.3mm
13:39 73.2 °F /  22.9 °C 62.8 °F /  17.1 °C 29.82in /  1009.7hPa WNW 4.0mph /  6.4km/h 8.0mph /  12.9km/h 70% 0.01in /  0.3mm
13:44 73.1 °F /  22.8 °C 63.5 °F /  17.5 °C 29.81in /  1009.4hPa Calm   8.0mph /  12.9km/h 72% 0.01in /  0.3mm
13:49 72.7 °F /  22.6 °C 62.8 °F /  17.1 °C 29.82in /  1009.7hPa NW 5.0mph /  8km/h 9.0mph /  14.5km/h 71% 0.01in /  0.3mm
13:54 71.5 °F /  21.9 °C 62.4 °F /  16.9 °C 29.82in /  1009.7hPa NW 3.0mph /  4.8km/h 9.0mph /  14.5km/h 73% 0.01in /  0.3mm
13:59 71.1 °F /  21.7 °C 62.4 °F /  16.9 °C 29.82in /  1009.7hPa NW 2.0mph /  3.2km/h 8.0mph /  12.9km/h 74% 0.01in /  0.3mm
14:04 71.1 °F /  21.7 °C 63.5 °F /  17.5 °C 29.82in /  1009.7hPa Calm   7.0mph /  11.3km/h 77% 0.01in /  0.3mm
14:09 71.3 °F /  21.8 °C 63.4 °F /  17.4 °C 29.82in /  1009.7hPa NW 2.0mph /  3.2km/h 6.0mph /  9.7km/h 76% 0.01in /  0.3mm
14:14 71.1 °F /  21.7 °C 62.8 °F /  17.1 °C 29.82in /  1009.7hPa NW 2.0mph /  3.2km/h 8.0mph /  12.9km/h 75% 0.01in /  0.3mm
14:19 71.3 °F /  21.8 °C 63.7 °F /  17.6 °C 29.82in /  1009.7hPa NW 1.0mph /  1.6km/h 8.0mph /  12.9km/h 77% 0.01in /  0.3mm
14:24 71.6 °F /  22 °C 63.3 °F /  17.4 °C 29.82in /  1009.7hPa WNW 5.0mph /  8km/h 8.0mph /  12.9km/h 75% 0.01in /  0.3mm
14:29 72.2 °F /  22.3 °C 63.1 °F /  17.3 °C 29.82in /  1009.7hPa NW 4.0mph /  6.4km/h 10.0mph /  16.1km/h 73% 0.01in /  0.3mm
14:34 72.2 °F /  22.3 °C 62.7 °F /  17.1 °C 29.82in /  1009.7hPa NW 4.0mph /  6.4km/h 10.0mph /  16.1km/h 72% 0.01in /  0.3mm
14:39 72.4 °F /  22.4 °C 62.9 °F /  17.2 °C 29.82in /  1009.7hPa NE 1.0mph /  1.6km/h 7.0mph /  11.3km/h 72% 0.01in /  0.3mm
14:44 73.7 °F /  23.2 °C 63.3 °F /  17.4 °C 29.82in /  1009.7hPa NNE 2.0mph /  3.2km/h 6.0mph /  9.7km/h 70% 0.01in /  0.3mm
14:49 74.0 °F /  23.3 °C 64.0 °F /  17.8 °C 29.82in /  1009.7hPa NNE 2.0mph /  3.2km/h 6.0mph /  9.7km/h 71% 0.01in /  0.3mm
14:54 74.5 °F /  23.6 °C 64.9 °F /  18.3 °C 29.82in /  1009.7hPa Calm   6.0mph /  9.7km/h 72% 0.01in /  0.3mm
14:59 74.5 °F /  23.6 °C 64.5 °F /  18.1 °C 29.82in /  1009.7hPa North 2.0mph /  3.2km/h 8.0mph /  12.9km/h 71% 0.01in /  0.3mm
15:04 74.0 °F /  23.3 °C 63.2 °F /  17.3 °C 29.82in /  1009.7hPa NNE 1.0mph /  1.6km/h 8.0mph /  12.9km/h 69% 0.01in /  0.3mm
15:09 73.4 °F /  23 °C 63.0 °F /  17.2 °C 29.82in /  1009.7hPa ENE 1.0mph /  1.6km/h 6.0mph /  9.7km/h 70% 0.01in /  0.3mm
15:14 73.1 °F /  22.8 °C 63.9 °F /  17.7 °C 29.82in /  1009.7hPa NNE 1.0mph /  1.6km/h 7.0mph /  11.3km/h 73% 0.01in /  0.3mm
15:19 72.9 °F /  22.7 °C 64.1 °F /  17.8 °C 29.82in /  1009.7hPa Calm   7.0mph /  11.3km/h 74% 0.01in /  0.3mm
15:24 72.6 °F /  22.6 °C 63.1 °F /  17.3 °C 29.83in /  1010hPa Calm   6.0mph /  9.7km/h 72% 0.01in /  0.3mm
15:29 72.6 °F /  22.6 °C 63.5 °F /  17.5 °C 29.83in /  1010hPa Calm   6.0mph /  9.7km/h 73% 0.01in /  0.3mm
15:34 72.5 °F /  22.5 °C 63.4 °F /  17.4 °C 29.83in /  1010hPa Calm   5.0mph /  8km/h 73% 0.01in /  0.3mm
15:39 72.8 °F /  22.7 °C 64.8 °F /  18.2 °C 29.83in /  1010hPa Calm   5.0mph /  8km/h 76% 0.01in /  0.3mm
15:44 72.9 °F /  22.7 °C 63.0 °F /  17.2 °C 29.83in /  1010hPa NW 3.0mph /  4.8km/h 10.0mph /  16.1km/h 71% 0.01in /  0.3mm
15:49 73.2 °F /  22.9 °C 63.6 °F /  17.6 °C 29.83in /  1010hPa NW 2.0mph /  3.2km/h 10.0mph /  16.1km/h 72% 0.01in /  0.3mm
15:54 73.8 °F /  23.2 °C 63.8 °F /  17.7 °C 29.83in /  1010hPa NE 1.0mph /  1.6km/h 5.0mph /  8km/h 71% 0.01in /  0.3mm
15:59 74.5 °F /  23.6 °C 64.5 °F /  18.1 °C 29.83in /  1010hPa Calm   5.0mph /  8km/h 71% 0.01in /  0.3mm
16:04 75.1 °F /  23.9 °C 65.1 °F /  18.4 °C 29.82in /  1009.7hPa Calm   6.0mph /  9.7km/h 71% 0.01in /  0.3mm
16:09 76.0 °F /  24.4 °C 65.1 °F /  18.4 °C 29.83in /  1010hPa Calm   6.0mph /  9.7km/h 69% 0.01in /  0.3mm
16:14 76.1 °F /  24.5 °C 63.9 °F /  17.7 °C 29.83in /  1010hPa NNE 2.0mph /  3.2km/h 7.0mph /  11.3km/h 66% 0.01in /  0.3mm
16:19 75.5 °F /  24.2 °C 62.5 °F /  16.9 °C 29.83in /  1010hPa NNE 1.0mph /  1.6km/h 7.0mph /  11.3km/h 64% 0.01in /  0.3mm
16:24 75.1 °F /  23.9 °C 63.0 °F /  17.2 °C 29.83in /  1010hPa Calm   4.0mph /  6.4km/h 66% 0.01in /  0.3mm
16:29 74.6 °F /  23.7 °C 63.8 °F /  17.7 °C 29.83in /  1010hPa Calm   1.0mph /  1.6km/h 69% 0.01in /  0.3mm
16:34 74.2 °F /  23.4 °C 63.0 °F /  17.2 °C 29.83in /  1010hPa Calm   1.0mph /  1.6km/h 68% 0.01in /  0.3mm
16:39 73.8 °F /  23.2 °C 62.6 °F /  17 °C 29.83in /  1010hPa Calm   3.0mph /  4.8km/h 68% 0.01in /  0.3mm
16:44 74.2 °F /  23.4 °C 64.2 °F /  17.9 °C 29.83in /  1010hPa Calm   3.0mph /  4.8km/h 71% 0.01in /  0.3mm
16:49 74.7 °F /  23.7 °C 64.3 °F /  17.9 °C 29.83in /  1010hPa Calm   3.0mph /  4.8km/h 70% 0.01in /  0.3mm
16:54 74.7 °F /  23.7 °C 63.0 °F /  17.2 °C 29.83in /  1010hPa NNE 3.0mph /  4.8km/h 7.0mph /  11.3km/h 67% 0.01in /  0.3mm
16:59 74.2 °F /  23.4 °C 64.2 °F /  17.9 °C 29.83in /  1010hPa Calm   7.0mph /  11.3km/h 71% 0.01in /  0.3mm
17:04 73.8 °F /  23.2 °C 63.8 °F /  17.7 °C 29.83in /  1010hPa Calm   3.0mph /  4.8km/h 71% 0.01in /  0.3mm
17:09 73.5 °F /  23.1 °C 63.9 °F /  17.7 °C 29.83in /  1010hPa Calm   2.0mph /  3.2km/h 72% 0.01in /  0.3mm
17:14 73.2 °F /  22.9 °C 63.2 °F /  17.3 °C 29.83in /  1010hPa NE 1.0mph /  1.6km/h 6.0mph /  9.7km/h 71% 0.01in /  0.3mm
17:19 72.9 °F /  22.7 °C 63.0 °F /  17.2 °C 29.83in /  1010hPa Calm   6.0mph /  9.7km/h 71% 0.01in /  0.3mm
17:24 72.6 °F /  22.6 °C 62.7 °F /  17.1 °C 29.83in /  1010hPa Calm   1.0mph /  1.6km/h 71% 0.01in /  0.3mm
17:29 72.3 °F /  22.4 °C 63.2 °F /  17.3 °C 29.83in /  1010hPa Calm   1.0mph /  1.6km/h 73% 0.01in /  0.3mm
17:34 72.1 °F /  22.3 °C 62.6 °F /  17 °C 29.83in /  1010hPa Calm   1.0mph /  1.6km/h 72% 0.01in /  0.3mm
17:39 72.0 °F /  22.2 °C 63.3 °F /  17.4 °C 29.83in /  1010hPa Calm   1.0mph /  1.6km/h 74% 0.01in /  0.3mm
17:44 71.9 °F /  22.2 °C 63.2 °F /  17.3 °C 29.83in /  1010hPa Calm   1.0mph /  1.6km/h 74% 0.01in /  0.3mm
17:49 72.0 °F /  22.2 °C 63.3 °F /  17.4 °C 29.83in /  1010hPa Calm   1.0mph /  1.6km/h 74% 0.01in /  0.3mm
17:54 71.9 °F /  22.2 °C 62.4 °F /  16.9 °C 29.83in /  1010hPa Calm   4.0mph /  6.4km/h 72% 0.01in /  0.3mm
17:59 71.8 °F /  22.1 °C 62.3 °F /  16.8 °C 29.84in /  1010.4hPa Calm   4.0mph /  6.4km/h 72% 0.01in /  0.3mm
18:04 71.8 °F /  22.1 °C 62.7 °F /  17.1 °C 29.84in /  1010.4hPa Calm   2.0mph /  3.2km/h 73% 0.01in /  0.3mm
18:09 71.9 °F /  22.2 °C 63.2 °F /  17.3 °C 29.84in /  1010.4hPa Calm   2.0mph /  3.2km/h 74% 0.01in /  0.3mm
18:14 72.2 °F /  22.3 °C 62.3 °F /  16.8 °C 29.83in /  1010hPa ENE 1.0mph /  1.6km/h 4.0mph /  6.4km/h 71% 0.01in /  0.3mm
18:19 72.8 °F /  22.7 °C 62.9 °F /  17.2 °C 29.83in /  1010hPa Calm   4.0mph /  6.4km/h 71% 0.01in /  0.3mm
18:24 73.6 °F /  23.1 °C 63.6 °F /  17.6 °C 29.83in /  1010hPa Calm   1.0mph /  1.6km/h 71% 0.01in /  0.3mm
18:29 74.3 °F /  23.5 °C 63.9 °F /  17.7 °C 29.83in /  1010hPa Calm   1.0mph /  1.6km/h 70% 0.01in /  0.3mm
18:34 74.7 °F /  23.7 °C 63.9 °F /  17.7 °C 29.84in /  1010.4hPa Calm     69% 0.01in /  0.3mm
18:39 75.0 °F /  23.9 °C 64.2 °F /  17.9 °C 29.84in /  1010.4hPa Calm   1.0mph /  1.6km/h 69% 0.01in /  0.3mm
18:44 74.8 °F /  23.8 °C 64.0 °F /  17.8 °C 29.84in /  1010.4hPa Calm   1.0mph /  1.6km/h 69% 0.01in /  0.3mm
18:49 74.2 °F /  23.4 °C 64.6 °F /  18.1 °C 29.84in /  1010.4hPa Calm     72% 0.01in /  0.3mm
18:54 73.5 °F /  23.1 °C 64.3 °F /  17.9 °C 29.84in /  1010.4hPa Calm     73% 0.01in /  0.3mm
18:59 72.8 °F /  22.7 °C 63.7 °F /  17.6 °C 29.84in /  1010.4hPa Calm   1.0mph /  1.6km/h 73% 0.01in /  0.3mm
19:04 72.5 °F /  22.5 °C 63.7 °F /  17.6 °C 29.84in /  1010.4hPa Calm   1.0mph /  1.6km/h 74% 0.01in /  0.3mm
19:09 72.4 °F /  22.4 °C 64.0 °F /  17.8 °C 29.84in /  1010.4hPa Calm     75% 0.01in /  0.3mm
19:14 72.3 °F /  22.4 °C 64.3 °F /  17.9 °C 29.84in /  1010.4hPa Calm     76% 0.01in /  0.3mm
19:19 72.1 °F /  22.3 °C 64.1 °F /  17.8 °C 29.84in /  1010.4hPa Calm     76% 0.01in /  0.3mm
19:24 72.0 °F /  22.2 °C 64.8 °F /  18.2 °C 29.84in /  1010.4hPa Calm     78% 0.01in /  0.3mm
19:29 71.9 °F /  22.2 °C 65.0 °F /  18.3 °C 29.84in /  1010.4hPa Calm     79% 0.01in /  0.3mm
19:34 71.5 °F /  21.9 °C 64.7 °F /  18.2 °C 29.83in /  1010hPa Calm     79% 0.01in /  0.3mm
19:39 71.5 °F /  21.9 °C 65.0 °F /  18.3 °C 29.83in /  1010hPa Calm     80% 0.01in /  0.3mm
19:44 71.6 °F /  22 °C 65.1 °F /  18.4 °C 29.83in /  1010hPa Calm     80% 0.01in /  0.3mm
19:49 71.3 °F /  21.8 °C 64.1 °F /  17.8 °C 29.83in /  1010hPa Calm     78% 0.01in /  0.3mm
19:54 71.0 °F /  21.7 °C 64.2 °F /  17.9 °C 29.83in /  1010hPa Calm     79% 0.01in /  0.3mm
19:59 70.5 °F /  21.4 °C 63.3 °F /  17.4 °C 29.83in /  1010hPa Calm     78% 0.01in /  0.3mm
20:04 70.1 °F /  21.2 °C 63.6 °F /  17.6 °C 29.83in /  1010hPa Calm     80% 0.01in /  0.3mm
20:09 69.7 °F /  20.9 °C 63.6 °F /  17.6 °C 29.83in /  1010hPa Calm     81% 0.01in /  0.3mm
20:14 69.2 °F /  20.7 °C 63.1 °F /  17.3 °C 29.83in /  1010hPa Calm     81% 0.01in /  0.3mm
20:19 68.6 °F /  20.3 °C 62.5 °F /  16.9 °C 29.84in /  1010.4hPa Calm     81% 0.01in /  0.3mm
20:24 67.9 °F /  19.9 °C 62.2 °F /  16.8 °C 29.84in /  1010.4hPa Calm     82% 0.01in /  0.3mm
20:29 67.0 °F /  19.4 °C 61.7 °F /  16.5 °C 29.83in /  1010hPa Calm     83% 0.01in /  0.3mm
20:34 66.3 °F /  19.1 °C 61.0 °F /  16.1 °C 29.84in /  1010.4hPa Calm     83% 0.01in /  0.3mm
20:39 65.7 °F /  18.7 °C 60.7 °F /  15.9 °C 29.83in /  1010hPa Calm     84% 0.01in /  0.3mm
20:44 64.9 °F /  18.3 °C 60.3 °F /  15.7 °C 29.83in /  1010hPa Calm     85% 0.01in /  0.3mm
20:49 64.3 °F /  17.9 °C 60.0 °F /  15.6 °C 29.83in /  1010hPa Calm     86% 0.01in /  0.3mm
20:54 63.8 °F /  17.7 °C 59.9 °F /  15.5 °C 29.83in /  1010hPa Calm     87% 0.01in /  0.3mm
20:59 63.4 °F /  17.4 °C 59.5 °F /  15.3 °C 29.83in /  1010hPa Calm     87% 0.01in /  0.3mm
21:04 62.9 °F /  17.2 °C 59.0 °F /  15 °C 29.84in /  1010.4hPa Calm     87% 0.01in /  0.3mm
21:09 62.4 °F /  16.9 °C 58.8 °F /  14.9 °C 29.84in /  1010.4hPa Calm     88% 0.01in /  0.3mm
21:14 61.9 °F /  16.6 °C 58.3 °F /  14.6 °C 29.84in /  1010.4hPa Calm     88% 0.01in /  0.3mm
21:19 61.5 °F /  16.4 °C 57.9 °F /  14.4 °C 29.85in /  1010.7hPa Calm     88% 0.01in /  0.3mm
21:24 61.1 °F /  16.2 °C 57.8 °F /  14.3 °C 29.85in /  1010.7hPa Calm     89% 0.01in /  0.3mm
21:29 60.8 °F /  16 °C 57.5 °F /  14.2 °C 29.85in /  1010.7hPa Calm     89% 0.01in /  0.3mm
21:34 60.5 °F /  15.8 °C 57.2 °F /  14 °C 29.85in /  1010.7hPa Calm     89% 0.01in /  0.3mm
21:39 60.4 °F /  15.8 °C 57.1 °F /  13.9 °C 29.85in /  1010.7hPa Calm     89% 0.01in /  0.3mm
21:44 60.2 °F /  15.7 °C 57.3 °F /  14.1 °C 29.85in /  1010.7hPa Calm     90% 0.01in /  0.3mm
21:49 60.0 °F /  15.6 °C 57.1 °F /  13.9 °C 29.85in /  1010.7hPa Calm     90% 0.01in /  0.3mm
21:54 59.9 °F /  15.5 °C 57.0 °F /  13.9 °C 29.85in /  1010.7hPa Calm     90% 0.01in /  0.3mm
21:59 59.7 °F /  15.4 °C 56.8 °F /  13.8 °C 29.86in /  1011.1hPa Calm     90% 0.01in /  0.3mm
22:04 59.6 °F /  15.3 °C 57.0 °F /  13.9 °C 29.86in /  1011.1hPa Calm     91% 0.01in /  0.3mm
22:09 59.5 °F /  15.3 °C 56.9 °F /  13.8 °C 29.85in /  1010.7hPa Calm     91% 0.01in /  0.3mm
22:14 59.4 °F /  15.2 °C 56.8 °F /  13.8 °C 29.86in /  1011.1hPa Calm     91% 0.01in /  0.3mm
22:19 59.3 °F /  15.2 °C 56.7 °F /  13.7 °C 29.86in /  1011.1hPa Calm     91% 0.01in /  0.3mm
22:24 59.0 °F /  15 °C 56.7 °F /  13.7 °C 29.86in /  1011.1hPa Calm     92% 0.01in /  0.3mm
22:29 59.0 °F /  15 °C 56.7 °F /  13.7 °C 29.86in /  1011.1hPa Calm     92% 0.01in /  0.3mm
22:34 59.0 °F /  15 °C 56.7 °F /  13.7 °C 29.86in /  1011.1hPa Calm     92% 0.01in /  0.3mm
22:39 58.7 °F /  14.8 °C 56.4 °F /  13.6 °C 29.86in /  1011.1hPa Calm     92% 0.01in /  0.3mm
22:44 58.6 °F /  14.8 °C 56.3 °F /  13.5 °C 29.86in /  1011.1hPa Calm     92% 0.01in /  0.3mm
22:49 58.6 °F /  14.8 °C 56.3 °F /  13.5 °C 29.86in /  1011.1hPa Calm     92% 0.01in /  0.3mm
22:54 58.7 °F /  14.8 °C 56.7 °F /  13.7 °C 29.86in /  1011.1hPa Calm     93% 0.01in /  0.3mm
22:59 58.9 °F /  14.9 °C 56.9 °F /  13.8 °C 29.86in /  1011.1hPa Calm     93% 0.01in /  0.3mm
23:04 59.0 °F /  15 °C 57.0 °F /  13.9 °C 29.86in /  1011.1hPa Calm     93% 0.01in /  0.3mm
23:09 59.0 °F /  15 °C 57.0 °F /  13.9 °C 29.86in /  1011.1hPa Calm     93% 0.01in /  0.3mm
23:14 58.9 °F /  14.9 °C 56.9 °F /  13.8 °C 29.86in /  1011.1hPa Calm     93% 0.01in /  0.3mm
23:19 59.0 °F /  15 °C 57.3 °F /  14.1 °C 29.86in /  1011.1hPa Calm     94% 0.01in /  0.3mm
23:24 59.0 °F /  15 °C 57.3 °F /  14.1 °C 29.86in /  1011.1hPa Calm     94% 0.01in /  0.3mm
23:29 59.0 °F /  15 °C 57.3 °F /  14.1 °C 29.87in /  1011.4hPa Calm     94% 0.01in /  0.3mm
23:34 59.0 °F /  15 °C 57.3 °F /  14.1 °C 29.86in /  1011.1hPa Calm     94% 0.01in /  0.3mm
23:39 58.7 °F /  14.8 °C 57.0 °F /  13.9 °C 29.86in /  1011.1hPa Calm     94% 0.01in /  0.3mm
23:44 58.5 °F /  14.7 °C 56.8 °F /  13.8 °C 29.86in /  1011.1hPa Calm     94% 0.01in /  0.3mm
23:49 58.3 °F /  14.6 °C 56.6 °F /  13.7 °C 29.86in /  1011.1hPa Calm     94% 0.01in /  0.3mm
23:54 58.2 °F /  14.6 °C 56.5 °F /  13.6 °C 29.86in /  1011.1hPa Calm     94% 0.01in /  0.3mm
23:59 58.1 °F /  14.5 °C 56.4 °F /  13.6 °C 29.86in /  1011.1hPa Calm     94% 0.01in /  0.3mm
Westford Weather
Compliments of Weather Underground

 
 
Current Radar Loop:

Copyright © WestfordWeather.net 2007-2014. All rights reserved.